Parry Sound, Canada
Current Conditions -  °F | °C
As of 9:00 PM on Monday 22 Dec 2014 (Local Time) from CYQA Reporting Station
Overcast Overcast  
Wind Chill: 20°   Ceiling: 1100
Heat Index: 28°   Visibility: 9mi
Dew Point: 27°   Wind: 8mph
Humidity: 93%   Direction: 110°ESE
Pressure: 30.06"   Gusts: NA
Location:  45.34°N, 80.04°W
Report Text: CYQA 230200Z AUTO 11007KT 070V140 9SM OVC011 M02/M03 A3006 RMK SLP194
Loading
Personal Weather Stations






























Interactive Weather Map New forecast layout! Learn more

10-Day Weather Forecast

Advertisements
Track Severe Weather on mobile